sensor_id;sensor_type;location;lat;lon;timestamp;temperature;humidity
8595;DHT22;4335;48.860;9.198;2023-05-07T00:01:56;15.70;99.90
8595;DHT22;4335;48.860;9.198;2023-05-07T00:04:24;15.70;99.90
8595;DHT22;4335;48.860;9.198;2023-05-07T00:06:56;15.70;99.90
8595;DHT22;4335;48.860;9.198;2023-05-07T00:09:30;15.70;99.90
8595;DHT22;4335;48.860;9.198;2023-05-07T00:11:57;15.70;99.90
8595;DHT22;4335;48.860;9.198;2023-05-07T00:14:28;15.60;99.90
8595;DHT22;4335;48.860;9.198;2023-05-07T00:16:57;15.60;99.90
8595;DHT22;4335;48.860;9.198;2023-05-07T00:19:27;15.60;99.90
8595;DHT22;4335;48.860;9.198;2023-05-07T00:21:58;15.50;99.90
8595;DHT22;4335;48.860;9.198;2023-05-07T00:24:31;15.50;99.90
8595;DHT22;4335;48.860;9.198;2023-05-07T00:26:58;15.50;99.90
8595;DHT22;4335;48.860;9.198;2023-05-07T00:29:29;15.50;99.90
8595;DHT22;4335;48.860;9.198;2023-05-07T00:31:57;15.50;99.90
8595;DHT22;4335;48.860;9.198;2023-05-07T00:34:25;15.40;99.90
8595;DHT22;4335;48.860;9.198;2023-05-07T00:36:58;15.40;99.90
8595;DHT22;4335;48.860;9.198;2023-05-07T00:39:28;15.30;99.90
8595;DHT22;4335;48.860;9.198;2023-05-07T00:41:59;15.30;99.90
8595;DHT22;4335;48.860;9.198;2023-05-07T00:44:26;15.30;99.90
8595;DHT22;4335;48.860;9.198;2023-05-07T00:46:58;15.30;99.90
8595;DHT22;4335;48.860;9.198;2023-05-07T00:49:38;15.30;99.90
8595;DHT22;4335;48.860;9.198;2023-05-07T00:52:07;15.30;99.90
8595;DHT22;4335;48.860;9.198;2023-05-07T00:54:35;15.20;99.90
8595;DHT22;4335;48.860;9.198;2023-05-07T00:57:10;15.20;99.90
8595;DHT22;4335;48.860;9.198;2023-05-07T00:59:44;15.10;99.90
8595;DHT22;4335;48.860;9.198;2023-05-07T01:02:16;15.10;99.90
8595;DHT22;4335;48.860;9.198;2023-05-07T01:04:53;15.10;99.90
8595;DHT22;4335;48.860;9.198;2023-05-07T01:07:20;15.10;99.90
8595;DHT22;4335;48.860;9.198;2023-05-07T01:09:48;15.10;99.90
8595;DHT22;4335;48.860;9.198;2023-05-07T01:12:16;15.10;99.90
8595;DHT22;4335;48.860;9.198;2023-05-07T01:14:44;15.10;99.90
8595;DHT22;4335;48.860;9.198;2023-05-07T01:17:11;15.10;99.90
8595;DHT22;4335;48.860;9.198;2023-05-07T01:19:40;15.00;99.90
8595;DHT22;4335;48.860;9.198;2023-05-07T01:22:09;14.90;99.90
8595;DHT22;4335;48.860;9.198;2023-05-07T01:24:41;14.90;99.90
8595;DHT22;4335;48.860;9.198;2023-05-07T01:27:09;14.90;99.90
8595;DHT22;4335;48.860;9.198;2023-05-07T01:29:43;14.90;99.90
8595;DHT22;4335;48.860;9.198;2023-05-07T01:32:14;14.90;99.90
8595;DHT22;4335;48.860;9.198;2023-05-07T01:34:43;14.80;99.90
8595;DHT22;4335;48.860;9.198;2023-05-07T01:37:12;14.80;99.90
8595;DHT22;4335;48.860;9.198;2023-05-07T01:39:44;14.80;99.90
8595;DHT22;4335;48.860;9.198;2023-05-07T01:42:15;14.80;99.90
8595;DHT22;4335;48.860;9.198;2023-05-07T01:44:51;14.80;99.90
8595;DHT22;4335;48.860;9.198;2023-05-07T01:47:22;14.80;99.90
8595;DHT22;4335;48.860;9.198;2023-05-07T01:49:50;14.80;99.90
8595;DHT22;4335;48.860;9.198;2023-05-07T01:52:18;14.80;99.90
8595;DHT22;4335;48.860;9.198;2023-05-07T01:54:46;14.80;99.90
8595;DHT22;4335;48.860;9.198;2023-05-07T01:57:14;14.80;99.90
8595;DHT22;4335;48.860;9.198;2023-05-07T01:59:41;14.70;99.90
8595;DHT22;4335;48.860;9.198;2023-05-07T02:02:12;14.70;99.90
8595;DHT22;4335;48.860;9.198;2023-05-07T02:04:42;14.60;99.90
8595;DHT22;4335;48.860;9.198;2023-05-07T02:07:12;14.60;99.90
8595;DHT22;4335;48.860;9.198;2023-05-07T02:09:42;14.60;99.90
8595;DHT22;4335;48.860;9.198;2023-05-07T02:12:10;14.70;99.90
8595;DHT22;4335;48.860;9.198;2023-05-07T02:14:43;14.60;99.90
8595;DHT22;4335;48.860;9.198;2023-05-07T02:17:19;14.60;99.90
8595;DHT22;4335;48.860;9.198;2023-05-07T02:19:46;14.60;99.90
8595;DHT22;4335;48.860;9.198;2023-05-07T02:22:17;14.60;99.90
8595;DHT22;4335;48.860;9.198;2023-05-07T02:24:45;14.60;99.90
8595;DHT22;4335;48.860;9.198;2023-05-07T02:27:13;14.60;99.90
8595;DHT22;4335;48.860;9.198;2023-05-07T02:29:44;14.60;99.90
8595;DHT22;4335;48.860;9.198;2023-05-07T02:32:14;14.60;99.90
8595;DHT22;4335;48.860;9.198;2023-05-07T02:34:50;14.60;99.90
8595;DHT22;4335;48.860;9.198;2023-05-07T02:37:21;14.60;99.90
8595;DHT22;4335;48.860;9.198;2023-05-07T02:39:51;14.60;99.90
8595;DHT22;4335;48.860;9.198;2023-05-07T02:42:20;14.60;99.90
8595;DHT22;4335;48.860;9.198;2023-05-07T02:44:50;14.60;99.90
8595;DHT22;4335;48.860;9.198;2023-05-07T02:47:29;14.50;99.90
8595;DHT22;4335;48.860;9.198;2023-05-07T02:49:56;14.50;99.90
8595;DHT22;4335;48.860;9.198;2023-05-07T02:52:23;14.50;99.90
8595;DHT22;4335;48.860;9.198;2023-05-07T02:54:51;14.40;99.90
8595;DHT22;4335;48.860;9.198;2023-05-07T02:57:23;14.40;99.90
8595;DHT22;4335;48.860;9.198;2023-05-07T02:59:53;14.30;99.90
8595;DHT22;4335;48.860;9.198;2023-05-07T03:02:20;14.30;99.90
8595;DHT22;4335;48.860;9.198;2023-05-07T03:04:47;14.20;99.90
8595;DHT22;4335;48.860;9.198;2023-05-07T03:07:21;14.20;99.90
8595;DHT22;4335;48.860;9.198;2023-05-07T03:09:48;14.20;99.90
8595;DHT22;4335;48.860;9.198;2023-05-07T03:12:19;14.10;99.90
8595;DHT22;4335;48.860;9.198;2023-05-07T03:14:51;14.10;99.90
8595;DHT22;4335;48.860;9.198;2023-05-07T03:17:18;14.00;99.90
8595;DHT22;4335;48.860;9.198;2023-05-07T03:19:49;14.00;99.90
8595;DHT22;4335;48.860;9.198;2023-05-07T03:22:16;14.00;99.90
8595;DHT22;4335;48.860;9.198;2023-05-07T03:24:53;14.00;99.90
8595;DHT22;4335;48.860;9.198;2023-05-07T03:27:23;14.00;99.90
8595;DHT22;4335;48.860;9.198;2023-05-07T03:29:52;13.90;99.90
8595;DHT22;4335;48.860;9.198;2023-05-07T03:32:19;13.90;99.90
8595;DHT22;4335;48.860;9.198;2023-05-07T03:34:47;13.80;99.90
8595;DHT22;4335;48.860;9.198;2023-05-07T03:37:15;13.80;99.90
8595;DHT22;4335;48.860;9.198;2023-05-07T03:39:43;13.80;99.90
8595;DHT22;4335;48.860;9.198;2023-05-07T03:42:14;13.80;99.90
8595;DHT22;4335;48.860;9.198;2023-05-07T03:44:42;13.80;99.90
8595;DHT22;4335;48.860;9.198;2023-05-07T03:47:11;13.70;99.90
8595;DHT22;4335;48.860;9.198;2023-05-07T03:49:39;13.70;99.90
8595;DHT22;4335;48.860;9.198;2023-05-07T03:52:06;13.70;99.90
8595;DHT22;4335;48.860;9.198;2023-05-07T03:54:36;13.70;99.90
8595;DHT22;4335;48.860;9.198;2023-05-07T03:57:04;13.70;99.90
8595;DHT22;4335;48.860;9.198;2023-05-07T03:59:31;13.70;99.90
8595;DHT22;4335;48.860;9.198;2023-05-07T04:01:58;13.70;99.90
8595;DHT22;4335;48.860;9.198;2023-05-07T04:04:30;13.70;99.90
8595;DHT22;4335;48.860;9.198;2023-05-07T04:07:04;13.70;99.90
8595;DHT22;4335;48.860;9.198;2023-05-07T04:09:31;13.60;99.90
8595;DHT22;4335;48.860;9.198;2023-05-07T04:12:09;13.60;99.90
8595;DHT22;4335;48.860;9.198;2023-05-07T04:14:39;13.60;99.90
8595;DHT22;4335;48.860;9.198;2023-05-07T04:17:07;13.60;99.90
8595;DHT22;4335;48.860;9.198;2023-05-07T04:19:38;13.60;99.90
8595;DHT22;4335;48.860;9.198;2023-05-07T04:22:05;13.60;99.90
8595;DHT22;4335;48.860;9.198;2023-05-07T04:24:36;13.60;99.90
8595;DHT22;4335;48.860;9.198;2023-05-07T04:27:03;13.70;99.90
8595;DHT22;4335;48.860;9.198;2023-05-07T04:29:32;13.70;99.90
8595;DHT22;4335;48.860;9.198;2023-05-07T04:31:59;13.80;99.90
8595;DHT22;4335;48.860;9.198;2023-05-07T04:34:27;13.90;99.90
8595;DHT22;4335;48.860;9.198;2023-05-07T04:36:58;14.00;99.90
8595;DHT22;4335;48.860;9.198;2023-05-07T04:39:26;14.10;99.90
8595;DHT22;4335;48.860;9.198;2023-05-07T04:41:56;14.20;99.90
8595;DHT22;4335;48.860;9.198;2023-05-07T04:44:36;14.20;99.90
8595;DHT22;4335;48.860;9.198;2023-05-07T04:47:04;14.30;99.90
8595;DHT22;4335;48.860;9.198;2023-05-07T04:49:31;14.40;99.90
8595;DHT22;4335;48.860;9.198;2023-05-07T04:52:00;14.40;99.90
8595;DHT22;4335;48.860;9.198;2023-05-07T04:54:29;14.60;99.90
8595;DHT22;4335;48.860;9.198;2023-05-07T04:56:56;14.80;99.90
8595;DHT22;4335;48.860;9.198;2023-05-07T04:59:27;15.10;99.90
8595;DHT22;4335;48.860;9.198;2023-05-07T05:01:54;15.30;99.90
8595;DHT22;4335;48.860;9.198;2023-05-07T05:04:21;15.30;99.90
8595;DHT22;4335;48.860;9.198;2023-05-07T05:06:55;15.40;99.90
8595;DHT22;4335;48.860;9.198;2023-05-07T05:09:23;15.40;99.90
8595;DHT22;4335;48.860;9.198;2023-05-07T05:11:54;15.30;99.90
8595;DHT22;4335;48.860;9.198;2023-05-07T05:14:24;15.30;99.90
8595;DHT22;4335;48.860;9.198;2023-05-07T05:16:54;15.20;99.90
8595;DHT22;4335;48.860;9.198;2023-05-07T05:19:22;15.10;99.90
8595;DHT22;4335;48.860;9.198;2023-05-07T05:21:49;15.00;99.90
8595;DHT22;4335;48.860;9.198;2023-05-07T05:24:17;14.90;99.90
8595;DHT22;4335;48.860;9.198;2023-05-07T05:26:48;14.90;99.90
8595;DHT22;4335;48.860;9.198;2023-05-07T05:29:15;15.00;99.90
8595;DHT22;4335;48.860;9.198;2023-05-07T05:31:48;15.10;99.90
8595;DHT22;4335;48.860;9.198;2023-05-07T05:34:16;15.10;99.90
8595;DHT22;4335;48.860;9.198;2023-05-07T05:36:45;15.30;99.90
8595;DHT22;4335;48.860;9.198;2023-05-07T05:39:12;15.50;99.90
8595;DHT22;4335;48.860;9.198;2023-05-07T05:41:40;15.90;99.90
8595;DHT22;4335;48.860;9.198;2023-05-07T05:44:21;16.40;99.90
8595;DHT22;4335;48.860;9.198;2023-05-07T05:46:51;16.80;99.90
8595;DHT22;4335;48.860;9.198;2023-05-07T05:49:20;17.20;99.90
8595;DHT22;4335;48.860;9.198;2023-05-07T05:51:47;17.60;99.90
8595;DHT22;4335;48.860;9.198;2023-05-07T05:54:18;18.10;99.90
8595;DHT22;4335;48.860;9.198;2023-05-07T05:56:45;18.40;99.90
8595;DHT22;4335;48.860;9.198;2023-05-07T05:59:19;18.50;99.90
8595;DHT22;4335;48.860;9.198;2023-05-07T06:01:50;18.80;99.90
8595;DHT22;4335;48.860;9.198;2023-05-07T06:04:18;19.00;99.90
8595;DHT22;4335;48.860;9.198;2023-05-07T06:06:45;19.60;99.90
8595;DHT22;4335;48.860;9.198;2023-05-07T06:09:12;20.10;99.90
8595;DHT22;4335;48.860;9.198;2023-05-07T06:11:39;20.60;99.90
8595;DHT22;4335;48.860;9.198;2023-05-07T06:14:07;20.70;99.90
8595;DHT22;4335;48.860;9.198;2023-05-07T06:16:43;20.90;99.90
8595;DHT22;4335;48.860;9.198;2023-05-07T06:19:11;21.30;99.90
8595;DHT22;4335;48.860;9.198;2023-05-07T06:21:39;21.20;99.90
8595;DHT22;4335;48.860;9.198;2023-05-07T06:24:10;20.70;99.90
8595;DHT22;4335;48.860;9.198;2023-05-07T06:26:37;20.30;99.90
8595;DHT22;4335;48.860;9.198;2023-05-07T06:29:05;20.30;99.90
8595;DHT22;4335;48.860;9.198;2023-05-07T06:31:32;20.40;99.90
8595;DHT22;4335;48.860;9.198;2023-05-07T06:34:04;20.90;99.90
8595;DHT22;4335;48.860;9.198;2023-05-07T06:36:35;21.40;99.90
8595;DHT22;4335;48.860;9.198;2023-05-07T06:39:03;21.90;99.90
8595;DHT22;4335;48.860;9.198;2023-05-07T06:41:40;22.50;99.90
8595;DHT22;4335;48.860;9.198;2023-05-07T06:44:07;23.30;99.90
8595;DHT22;4335;48.860;9.198;2023-05-07T06:46:44;23.60;99.90
8595;DHT22;4335;48.860;9.198;2023-05-07T06:49:13;24.10;99.90
8595;DHT22;4335;48.860;9.198;2023-05-07T06:51:43;24.60;99.90
8595;DHT22;4335;48.860;9.198;2023-05-07T06:54:14;25.20;99.90
8595;DHT22;4335;48.860;9.198;2023-05-07T06:56:41;25.90;99.90
8595;DHT22;4335;48.860;9.198;2023-05-07T06:59:08;26.40;99.90
8595;DHT22;4335;48.860;9.198;2023-05-07T07:01:37;26.60;99.90
8595;DHT22;4335;48.860;9.198;2023-05-07T07:04:07;27.20;99.90
8595;DHT22;4335;48.860;9.198;2023-05-07T07:06:36;28.10;98.50
8595;DHT22;4335;48.860;9.198;2023-05-07T07:09:04;29.00;94.80
8595;DHT22;4335;48.860;9.198;2023-05-07T07:11:49;29.40;93.00
8595;DHT22;4335;48.860;9.198;2023-05-07T07:14:16;30.70;90.80
8595;DHT22;4335;48.860;9.198;2023-05-07T07:16:43;31.60;87.20
8595;DHT22;4335;48.860;9.198;2023-05-07T07:19:12;31.90;81.20
8595;DHT22;4335;48.860;9.198;2023-05-07T07:21:45;31.90;76.60
8595;DHT22;4335;48.860;9.198;2023-05-07T07:24:15;32.00;74.10
8595;DHT22;4335;48.860;9.198;2023-05-07T07:26:49;32.00;72.90
8595;DHT22;4335;48.860;9.198;2023-05-07T07:29:19;32.00;71.60
8595;DHT22;4335;48.860;9.198;2023-05-07T07:31:50;31.90;71.30
8595;DHT22;4335;48.860;9.198;2023-05-07T07:34:20;31.50;70.30
8595;DHT22;4335;48.860;9.198;2023-05-07T07:36:49;30.90;71.20
8595;DHT22;4335;48.860;9.198;2023-05-07T07:39:16;30.30;73.20
8595;DHT22;4335;48.860;9.198;2023-05-07T07:41:46;30.10;74.80
8595;DHT22;4335;48.860;9.198;2023-05-07T07:44:16;30.40;75.10
8595;DHT22;4335;48.860;9.198;2023-05-07T07:46:47;30.80;75.00
8595;DHT22;4335;48.860;9.198;2023-05-07T07:49:17;30.90;72.90
8595;DHT22;4335;48.860;9.198;2023-05-07T07:51:49;31.10;71.90
8595;DHT22;4335;48.860;9.198;2023-05-07T07:54:16;31.40;71.70
8595;DHT22;4335;48.860;9.198;2023-05-07T07:56:44;31.20;72.40
8595;DHT22;4335;48.860;9.198;2023-05-07T07:59:11;30.60;73.30
8595;DHT22;4335;48.860;9.198;2023-05-07T08:01:39;29.80;75.90
8595;DHT22;4335;48.860;9.198;2023-05-07T08:04:07;29.10;79.00
8595;DHT22;4335;48.860;9.198;2023-05-07T08:06:34;28.60;80.70
8595;DHT22;4335;48.860;9.198;2023-05-07T08:09:09;28.30;82.20
8595;DHT22;4335;48.860;9.198;2023-05-07T08:11:36;28.00;84.00
8595;DHT22;4335;48.860;9.198;2023-05-07T08:14:04;27.80;84.80
8595;DHT22;4335;48.860;9.198;2023-05-07T08:16:31;27.60;86.00
8595;DHT22;4335;48.860;9.198;2023-05-07T08:18:59;27.40;86.30
8595;DHT22;4335;48.860;9.198;2023-05-07T08:21:26;27.20;87.90
8595;DHT22;4335;48.860;9.198;2023-05-07T08:23:54;27.00;89.20
8595;DHT22;4335;48.860;9.198;2023-05-07T08:26:23;26.80;90.30
8595;DHT22;4335;48.860;9.198;2023-05-07T08:28:50;26.70;90.40
8595;DHT22;4335;48.860;9.198;2023-05-07T08:31:17;26.80;90.70
8595;DHT22;4335;48.860;9.198;2023-05-07T08:33:48;26.90;91.00
8595;DHT22;4335;48.860;9.198;2023-05-07T08:36:15;26.90;91.00
8595;DHT22;4335;48.860;9.198;2023-05-07T08:38:44;27.00;91.10
8595;DHT22;4335;48.860;9.198;2023-05-07T08:41:15;27.10;90.90
8595;DHT22;4335;48.860;9.198;2023-05-07T08:43:47;27.50;90.60
8595;DHT22;4335;48.860;9.198;2023-05-07T08:46:20;28.30;89.30
8595;DHT22;4335;48.860;9.198;2023-05-07T08:48:48;29.70;86.20
8595;DHT22;4335;48.860;9.198;2023-05-07T08:51:20;31.00;81.70
8595;DHT22;4335;48.860;9.198;2023-05-07T08:53:48;32.50;75.30
8595;DHT22;4335;48.860;9.198;2023-05-07T08:56:18;33.40;71.90
8595;DHT22;4335;48.860;9.198;2023-05-07T08:58:48;34.60;68.70
8595;DHT22;4335;48.860;9.198;2023-05-07T09:01:16;35.80;65.60
8595;DHT22;4335;48.860;9.198;2023-05-07T09:03:46;36.70;61.40
8595;DHT22;4335;48.860;9.198;2023-05-07T09:06:19;37.10;59.50
8595;DHT22;4335;48.860;9.198;2023-05-07T09:08:50;37.40;57.30
8595;DHT22;4335;48.860;9.198;2023-05-07T09:11:20;37.40;55.70
8595;DHT22;4335;48.860;9.198;2023-05-07T09:13:56;38.20;54.60
8595;DHT22;4335;48.860;9.198;2023-05-07T09:16:27;38.10;53.40
8595;DHT22;4335;48.860;9.198;2023-05-07T09:18:57;38.00;53.70
8595;DHT22;4335;48.860;9.198;2023-05-07T09:21:28;38.40;52.60
8595;DHT22;4335;48.860;9.198;2023-05-07T09:23:55;39.20;52.40
8595;DHT22;4335;48.860;9.198;2023-05-07T09:26:23;39.30;51.10
8595;DHT22;4335;48.860;9.198;2023-05-07T09:28:55;39.70;49.90
8595;DHT22;4335;48.860;9.198;2023-05-07T09:31:22;39.80;49.10
8595;DHT22;4335;48.860;9.198;2023-05-07T09:33:52;39.40;49.00
8595;DHT22;4335;48.860;9.198;2023-05-07T09:36:21;39.40;49.00
8595;DHT22;4335;48.860;9.198;2023-05-07T09:38:55;39.60;48.20
8595;DHT22;4335;48.860;9.198;2023-05-07T09:41:22;39.10;48.70
8595;DHT22;4335;48.860;9.198;2023-05-07T09:43:55;38.80;49.00
8595;DHT22;4335;48.860;9.198;2023-05-07T09:46:29;38.60;49.10
8595;DHT22;4335;48.860;9.198;2023-05-07T09:48:57;38.40;49.40
8595;DHT22;4335;48.860;9.198;2023-05-07T09:51:28;38.40;49.10
8595;DHT22;4335;48.860;9.198;2023-05-07T09:54:00;38.60;48.60
8595;DHT22;4335;48.860;9.198;2023-05-07T09:56:40;38.40;49.20
8595;DHT22;4335;48.860;9.198;2023-05-07T09:59:11;38.20;48.50
8595;DHT22;4335;48.860;9.198;2023-05-07T10:01:41;37.90;49.20
8595;DHT22;4335;48.860;9.198;2023-05-07T10:04:12;38.30;49.40
8595;DHT22;4335;48.860;9.198;2023-05-07T10:06:40;38.80;48.00
8595;DHT22;4335;48.860;9.198;2023-05-07T10:09:08;38.40;48.60
8595;DHT22;4335;48.860;9.198;2023-05-07T10:11:37;38.30;48.20
8595;DHT22;4335;48.860;9.198;2023-05-07T10:14:09;38.00;48.70
8595;DHT22;4335;48.860;9.198;2023-05-07T10:16:41;38.30;48.50
8595;DHT22;4335;48.860;9.198;2023-05-07T10:19:12;37.90;48.50
8595;DHT22;4335;48.860;9.198;2023-05-07T10:21:44;37.70;48.20
8595;DHT22;4335;48.860;9.198;2023-05-07T10:24:19;37.30;49.30
8595;DHT22;4335;48.860;9.198;2023-05-07T10:26:49;37.30;49.90
8595;DHT22;4335;48.860;9.198;2023-05-07T10:29:28;36.80;49.60
8595;DHT22;4335;48.860;9.198;2023-05-07T10:32:10;36.10;50.00
8595;DHT22;4335;48.860;9.198;2023-05-07T10:34:44;35.70;50.80
8595;DHT22;4335;48.860;9.198;2023-05-07T10:37:15;35.30;51.60
8595;DHT22;4335;48.860;9.198;2023-05-07T10:39:47;34.90;52.20
8595;DHT22;4335;48.860;9.198;2023-05-07T10:42:15;34.40;53.00
8595;DHT22;4335;48.860;9.198;2023-05-07T10:44:44;32.80;55.00
8595;DHT22;4335;48.860;9.198;2023-05-07T10:47:15;31.30;57.10
8595;DHT22;4335;48.860;9.198;2023-05-07T10:50:23;30.30;59.00
8595;DHT22;4335;48.860;9.198;2023-05-07T10:53:21;29.50;61.10
8595;DHT22;4335;48.860;9.198;2023-05-07T10:56:23;28.50;63.50
8595;DHT22;4335;48.860;9.198;2023-05-07T10:58:40;28.20;65.30
8595;DHT22;4335;48.860;9.198;2023-05-07T11:01:09;27.70;66.20
8595;DHT22;4335;48.860;9.198;2023-05-07T11:04:13;27.70;68.40
8595;DHT22;4335;48.860;9.198;2023-05-07T11:06:41;27.60;70.50
8595;DHT22;4335;48.860;9.198;2023-05-07T11:09:17;27.30;72.50
8595;DHT22;4335;48.860;9.198;2023-05-07T11:11:49;27.10;73.20
8595;DHT22;4335;48.860;9.198;2023-05-07T11:14:44;26.80;74.30
8595;DHT22;4335;48.860;9.198;2023-05-07T11:17:13;26.50;75.70
8595;DHT22;4335;48.860;9.198;2023-05-07T11:19:51;26.40;77.00
8595;DHT22;4335;48.860;9.198;2023-05-07T11:22:40;26.30;78.20
8595;DHT22;4335;48.860;9.198;2023-05-07T11:25:07;26.10;79.80
8595;DHT22;4335;48.860;9.198;2023-05-07T11:27:35;25.70;80.20
8595;DHT22;4335;48.860;9.198;2023-05-07T11:30:06;25.60;82.10
8595;DHT22;4335;48.860;9.198;2023-05-07T11:32:35;25.50;83.60
8595;DHT22;4335;48.860;9.198;2023-05-07T11:35:04;25.30;82.50
8595;DHT22;4335;48.860;9.198;2023-05-07T11:37:31;25.30;85.40
8595;DHT22;4335;48.860;9.198;2023-05-07T11:40:07;25.40;87.20
8595;DHT22;4335;48.860;9.198;2023-05-07T11:42:41;25.20;86.50
8595;DHT22;4335;48.860;9.198;2023-05-07T11:45:10;25.20;86.40
8595;DHT22;4335;48.860;9.198;2023-05-07T11:47:42;25.20;86.50
8595;DHT22;4335;48.860;9.198;2023-05-07T11:50:09;25.20;86.30
8595;DHT22;4335;48.860;9.198;2023-05-07T11:52:40;25.20;87.70
8595;DHT22;4335;48.860;9.198;2023-05-07T11:55:21;25.30;87.50
8595;DHT22;4335;48.860;9.198;2023-05-07T11:57:49;25.10;87.60
8595;DHT22;4335;48.860;9.198;2023-05-07T12:00:17;25.20;86.40
8595;DHT22;4335;48.860;9.198;2023-05-07T12:02:47;25.10;85.60
8595;DHT22;4335;48.860;9.198;2023-05-07T12:05:20;25.10;85.00
8595;DHT22;4335;48.860;9.198;2023-05-07T12:07:56;25.00;85.30
8595;DHT22;4335;48.860;9.198;2023-05-07T12:10:23;24.80;86.10
8595;DHT22;4335;48.860;9.198;2023-05-07T12:12:54;24.70;87.20
8595;DHT22;4335;48.860;9.198;2023-05-07T12:15:23;24.70;87.50
8595;DHT22;4335;48.860;9.198;2023-05-07T12:17:52;24.60;87.70
8595;DHT22;4335;48.860;9.198;2023-05-07T12:20:20;24.50;88.20
8595;DHT22;4335;48.860;9.198;2023-05-07T12:22:48;24.50;88.60
8595;DHT22;4335;48.860;9.198;2023-05-07T12:25:19;24.40;89.90
8595;DHT22;4335;48.860;9.198;2023-05-07T12:27:51;24.30;90.40
8595;DHT22;4335;48.860;9.198;2023-05-07T12:30:19;24.20;89.50
8595;DHT22;4335;48.860;9.198;2023-05-07T12:32:56;24.20;88.00
8595;DHT22;4335;48.860;9.198;2023-05-07T12:35:37;24.20;90.00
8595;DHT22;4335;48.860;9.198;2023-05-07T12:38:11;24.00;89.60
8595;DHT22;4335;48.860;9.198;2023-05-07T12:40:40;24.00;90.20
8595;DHT22;4335;48.860;9.198;2023-05-07T12:43:07;24.00;89.40
8595;DHT22;4335;48.860;9.198;2023-05-07T12:45:38;23.90;90.00
8595;DHT22;4335;48.860;9.198;2023-05-07T12:48:09;23.80;90.00
8595;DHT22;4335;48.860;9.198;2023-05-07T12:50:37;23.80;91.60
8595;DHT22;4335;48.860;9.198;2023-05-07T12:53:06;23.80;94.00
8595;DHT22;4335;48.860;9.198;2023-05-07T12:55:41;23.60;96.60
8595;DHT22;4335;48.860;9.198;2023-05-07T12:58:18;23.40;99.00
8595;DHT22;4335;48.860;9.198;2023-05-07T13:00:47;23.20;99.90
8595;DHT22;4335;48.860;9.198;2023-05-07T13:03:24;23.00;99.90
8595;DHT22;4335;48.860;9.198;2023-05-07T13:05:55;22.80;99.90
8595;DHT22;4335;48.860;9.198;2023-05-07T13:08:27;22.60;99.90
8595;DHT22;4335;48.860;9.198;2023-05-07T13:10:55;22.50;99.90
8595;DHT22;4335;48.860;9.198;2023-05-07T13:13:32;22.40;99.90
8595;DHT22;4335;48.860;9.198;2023-05-07T13:16:00;22.20;99.90
8595;DHT22;4335;48.860;9.198;2023-05-07T13:18:29;22.00;99.90
8595;DHT22;4335;48.860;9.198;2023-05-07T13:20:57;21.80;99.90
8595;DHT22;4335;48.860;9.198;2023-05-07T13:23:25;21.70;99.90
8595;DHT22;4335;48.860;9.198;2023-05-07T13:25:52;21.50;99.90
8595;DHT22;4335;48.860;9.198;2023-05-07T13:28:20;21.50;99.90
8595;DHT22;4335;48.860;9.198;2023-05-07T13:30:47;21.40;99.90
8595;DHT22;4335;48.860;9.198;2023-05-07T13:33:20;21.20;99.90
8595;DHT22;4335;48.860;9.198;2023-05-07T13:35:49;20.90;99.90
8595;DHT22;4335;48.860;9.198;2023-05-07T13:38:16;20.60;99.90
8595;DHT22;4335;48.860;9.198;2023-05-07T13:40:44;20.40;99.90
8595;DHT22;4335;48.860;9.198;2023-05-07T13:43:11;20.00;99.90
8595;DHT22;4335;48.860;9.198;2023-05-07T13:45:45;19.70;99.90
8595;DHT22;4335;48.860;9.198;2023-05-07T13:48:18;19.50;99.90
8595;DHT22;4335;48.860;9.198;2023-05-07T13:50:50;19.30;99.90
8595;DHT22;4335;48.860;9.198;2023-05-07T13:53:17;19.20;99.90
8595;DHT22;4335;48.860;9.198;2023-05-07T13:55:45;19.10;99.90
8595;DHT22;4335;48.860;9.198;2023-05-07T13:58:12;19.00;99.90
8595;DHT22;4335;48.860;9.198;2023-05-07T14:00:43;18.90;99.90
8595;DHT22;4335;48.860;9.198;2023-05-07T14:03:14;18.80;99.90
8595;DHT22;4335;48.860;9.198;2023-05-07T14:05:43;18.80;99.90
8595;DHT22;4335;48.860;9.198;2023-05-07T14:08:15;18.80;99.90
8595;DHT22;4335;48.860;9.198;2023-05-07T14:10:44;18.80;99.90
8595;DHT22;4335;48.860;9.198;2023-05-07T14:13:20;18.60;99.90
8595;DHT22;4335;48.860;9.198;2023-05-07T14:15:51;18.60;99.90
8595;DHT22;4335;48.860;9.198;2023-05-07T14:18:18;18.50;99.90
8595;DHT22;4335;48.860;9.198;2023-05-07T14:20:46;18.40;99.90
8595;DHT22;4335;48.860;9.198;2023-05-07T14:23:22;18.50;99.90
8595;DHT22;4335;48.860;9.198;2023-05-07T14:25:52;18.50;99.90
8595;DHT22;4335;48.860;9.198;2023-05-07T14:28:23;18.50;99.90
8595;DHT22;4335;48.860;9.198;2023-05-07T14:30:53;18.50;99.90
8595;DHT22;4335;48.860;9.198;2023-05-07T14:33:20;18.60;99.90
8595;DHT22;4335;48.860;9.198;2023-05-07T14:35:51;18.60;99.90
8595;DHT22;4335;48.860;9.198;2023-05-07T14:38:27;18.60;99.90
8595;DHT22;4335;48.860;9.198;2023-05-07T14:40:54;18.60;99.90
8595;DHT22;4335;48.860;9.198;2023-05-07T14:43:22;18.60;99.90
8595;DHT22;4335;48.860;9.198;2023-05-07T14:45:49;18.60;99.90
8595;DHT22;4335;48.860;9.198;2023-05-07T14:48:17;18.60;99.90
8595;DHT22;4335;48.860;9.198;2023-05-07T14:50:46;18.60;99.90
8595;DHT22;4335;48.860;9.198;2023-05-07T14:53:20;18.70;99.90
8595;DHT22;4335;48.860;9.198;2023-05-07T14:55:49;18.70;99.90
8595;DHT22;4335;48.860;9.198;2023-05-07T14:58:22;18.70;99.90
8595;DHT22;4335;48.860;9.198;2023-05-07T15:00:49;18.80;99.90
8595;DHT22;4335;48.860;9.198;2023-05-07T15:03:19;18.80;99.90
8595;DHT22;4335;48.860;9.198;2023-05-07T15:05:54;18.80;99.90
8595;DHT22;4335;48.860;9.198;2023-05-07T15:08:22;18.80;99.90
8595;DHT22;4335;48.860;9.198;2023-05-07T15:10:50;18.80;99.90
8595;DHT22;4335;48.860;9.198;2023-05-07T15:13:21;18.60;99.90
8595;DHT22;4335;48.860;9.198;2023-05-07T15:15:48;18.60;99.90
8595;DHT22;4335;48.860;9.198;2023-05-07T15:18:22;18.60;99.90
8595;DHT22;4335;48.860;9.198;2023-05-07T15:20:52;18.60;99.90
8595;DHT22;4335;48.860;9.198;2023-05-07T15:23:19;18.70;99.90
8595;DHT22;4335;48.860;9.198;2023-05-07T15:25:51;18.70;99.90
8595;DHT22;4335;48.860;9.198;2023-05-07T15:28:19;18.80;99.90
8595;DHT22;4335;48.860;9.198;2023-05-07T15:30:52;18.90;99.90
8595;DHT22;4335;48.860;9.198;2023-05-07T15:33:22;19.00;99.90
8595;DHT22;4335;48.860;9.198;2023-05-07T15:35:50;19.10;99.90
8595;DHT22;4335;48.860;9.198;2023-05-07T15:38:20;19.20;99.90
8595;DHT22;4335;48.860;9.198;2023-05-07T15:40:48;19.20;99.90
8595;DHT22;4335;48.860;9.198;2023-05-07T15:43:20;19.20;99.90
8595;DHT22;4335;48.860;9.198;2023-05-07T15:45:50;19.30;99.90
8595;DHT22;4335;48.860;9.198;2023-05-07T15:48:21;19.30;99.90
8595;DHT22;4335;48.860;9.198;2023-05-07T15:50:48;19.40;99.90
8595;DHT22;4335;48.860;9.198;2023-05-07T15:53:21;19.30;99.90
8595;DHT22;4335;48.860;9.198;2023-05-07T15:55:49;19.30;99.90
8595;DHT22;4335;48.860;9.198;2023-05-07T15:58:18;19.40;99.90
8595;DHT22;4335;48.860;9.198;2023-05-07T16:00:46;19.30;99.90
8595;DHT22;4335;48.860;9.198;2023-05-07T16:03:19;19.20;99.90
8595;DHT22;4335;48.860;9.198;2023-05-07T16:05:50;19.10;99.90
8595;DHT22;4335;48.860;9.198;2023-05-07T16:08:19;19.10;99.90
8595;DHT22;4335;48.860;9.198;2023-05-07T16:10:47;19.00;99.90
8595;DHT22;4335;48.860;9.198;2023-05-07T16:13:14;18.80;99.90
8595;DHT22;4335;48.860;9.198;2023-05-07T16:15:48;18.70;99.90
8595;DHT22;4335;48.860;9.198;2023-05-07T16:18:15;18.70;99.90
8595;DHT22;4335;48.860;9.198;2023-05-07T16:20:46;18.60;99.90
8595;DHT22;4335;48.860;9.198;2023-05-07T16:23:16;18.60;99.90